Updated12/16/2018 03:1212 
 

Nearby Airport METAR Reports

 

KVSF - Springfield, Vermont, USA
Distance from station: WSW 8mi, 12km
Updated: 3:54am
Clear
Clear
 Wind from calm
Wind: Calm
Temperature: 21°F , -6°C
Dew Point: 21°F , -6°C
Humidity: 100%
Barometer: 30.23 inHg , 1023.7 hPa
Clouds: Clear
Visibility: 8 miles , 13 km
2018/12/16 08:54 KVSF 160854Z AUTO 00000KT 8SM CLR M06/M06 A3023 RMK AO2 SLP244 I1001 I3002 T10561061 58004
KLEB - Lebanon, New Hampshire, USA
Distance from station: N 18mi, 29km
Updated: 3:53am
Clear
Clear
 Wind from calm
Wind: Calm
Temperature: 23°F , -5°C
Dew Point: 19°F , -7°C
Humidity: 86%
Barometer: 30.22 inHg , 1023.4 hPa
Clouds: Clear
Visibility: 8 miles , 13 km
2018/12/16 08:53 KLEB 160853Z AUTO 00000KT 8SM CLR M05/M07 A3022 RMK AO2 SLP244 I1000 I3001 T10501072 58006
KRUT - Rutland State, Vermont, USA
Distance from station: WNW 31mi, 50km
Updated: 3:56am
Clear
Clear
 Wind from calm
Wind: Calm
Temperature: 25°F , -4°C
Dew Point: 23°F , -5°C
Humidity: 93%
Barometer: 30.20 inHg , 1022.7 hPa
Clouds: Clear
Visibility: 10 miles , 16 km
2018/12/16 08:56 KRUT 160856Z AUTO 00000KT 10SM CLR M04/M05 A3020 RMK AO2 SLP247 6//// T10441050 58005 FZRANO PNO $
 
KEEN - Keene/Dillant, New Hampshire, USA
Distance from station: S 34mi, 55km
Updated: 3:56am
Clear
Clear
 Wind from NE
Wind: NE 3 mph , 6 km/h
Temperature: 25°F , -4°C
Dew Point: 23°F , -5°C
Humidity: 93%
Barometer: 30.21 inHg , 1023 hPa
Clouds: Clear
Visibility: 10 miles , 16 km
2018/12/16 08:56 KEEN 160856Z AUTO 04003KT 10SM CLR M04/M05 A3021 RMK AO2 SLP250 T10441050 58005 FZRANO $
K1P1 - Plymouth, New Hampshire, USA
Distance from station: NE 42mi, 67km
Updated: 3:55am
Clear
Clear
 Wind from calm
Wind: Calm
Temperature: 18°F , -8°C
Dew Point: 16°F , -9°C
Humidity: 93%
Barometer: 30.24 inHg , 1024 hPa
Clouds: Clear
Visibility: 10 miles , 16 km
2018/12/16 08:55 K1P1 160855Z AUTO 00000KT 10SM CLR M08/M09 A3024 RMK AO2 T10841092
KAFN - Jaffrey, New Hampshire, USA
Distance from station: SSE 44mi, 70km
Updated: 3:52am
Clear
Clear
 Wind from varies
Wind: varies 5 mph , 7 km/h
Temperature: 28°F , -2°C
Wind Chill: 22°F , -6°C
Dew Point: 27°F , -3°C
Humidity: 93%
Barometer: 30.18 inHg , 1022 hPa
Clouds: Clear
Visibility: 10 miles , 16 km
2018/12/16 08:52 KAFN 160852Z AUTO VRB04KT 10SM CLR M02/M03 A3018 RMK AO2 SLP235 T10171033 58006
 
KCON - Concord, New Hampshire, USA
Distance from station: ESE 45mi, 73km
Updated: 3:51am
Mist, Clear
Mist, Clear
 Wind from calm
Wind: Calm
Temperature: 21°F , -6°C
Dew Point: 19°F , -7°C
Humidity: 93%
Barometer: 30.23 inHg , 1023.7 hPa
Summary: Mist
Clouds: Clear
Visibility: 5 miles , 8 km
2018/12/16 08:51 KCON 160851Z AUTO 00000KT 5SM BR CLR M06/M07 A3023 RMK AO2 SLP243 I1000 I3000 T10561072 58002
KLCI - Laconia Muni, New Hampshire, USA
Distance from station: ENE 49mi, 80km
Updated: 3:56am
Clear
Clear
 Wind from ENE
Wind: ENE 5 mph , 7 km/h
Temperature: 21°F , -6°C
Wind Chill: 14°F , -10°C
Dew Point: 19°F , -7°C
Humidity: 93%
Barometer: 30.23 inHg , 1023.7 hPa
Clouds: Clear
Visibility: 10 miles , 16 km
2018/12/16 08:56 KLCI 160856Z AUTO 07004KT 10SM CLR M06/M07 A3023 RMK AO2 SLP255 T10611072 58008 FZRANO $
KDDH - Bennington, Vermont, USA
Distance from station: SW 55mi, 89km
Updated: 3:54am
Clear
Clear
 Wind from calm
Wind: Calm
Temperature: 34°F , 1°C
Dew Point: 25°F , -4°C
Humidity: 70%
Barometer: 30.13 inHg , 1020.3 hPa
Clouds: Clear
Visibility: 10 miles , 16 km
2018/12/16 08:54 KDDH 160854Z AUTO 00000KT 10SM CLR 01/M04 A3013 RMK AO2 SLP210 T00061044 58016
 
K6B0 - Middlebury, Vermont, USA
Distance from station: NW 56mi, 90km
Updated: 3:35am
Clear
Clear
 Wind from calm
Wind: Calm
Temperature: 21°F , -6°C
Dew Point: 21°F , -6°C
Humidity: 100%
Barometer: 30.22 inHg , 1023.4 hPa
Clouds: Clear
Visibility: 10 miles , 16 km
2018/12/16 08:35 K6B0 160835Z AUTO 00000KT 10SM CLR M06/M06 A3022 RMK AO2 T10561062
KMHT - Manchester, New Hampshire, USA
Distance from station: ESE 56mi, 90km
Updated: 3:53am
Mostly cloudy
Mostly cloudy
 Wind from NNW
Wind: NNW 3 mph , 6 km/h
Temperature: 28°F , -2°C
Dew Point: 25°F , -4°C
Humidity: 86%
Barometer: 30.21 inHg , 1023 hPa
Clouds: Mostly cloudy
Visibility: 10 miles , 16 km
Cloud details: Mostly cloudy 20000 ft
2018/12/16 08:53 KMHT 160853Z 34003KT 10SM BKN200 M02/M04 A3021 RMK AO2 SLP247 T10171039 58002
KORE - Orange, Massachusetts, USA
Distance from station: S 56mi, 90km
Updated: 3:52am
Clear
Clear
 Wind from N
Wind: N 7 mph , 11 km/h
Temperature: 34°F , 1°C
Wind Chill: 28°F , -2°C
Dew Point: 25°F , -4°C
Humidity: 70%
Barometer: 30.19 inHg , 1022.4 hPa
Clouds: Clear
Visibility: 10 miles , 16 km
2018/12/16 08:52 KORE 160852Z AUTO 35006KT 10SM CLR 01/M04 A3019 RMK AO2 SLP228 T00061044 58003
 
KMPV - Montpelier/Barre, Vermont, USA
Distance from station: N 58mi, 93km
Updated: 3:56am
Mist, Mostly cloudy
Mist, Mostly cloudy
 Wind from calm
Wind: Calm
Temperature: 19°F , -7°C
Dew Point: 19°F , -7°C
Humidity: 100%
Barometer: 30.24 inHg , 1024 hPa
Summary: Mist
Clouds: Mostly cloudy
Visibility: 1 3/4 miles , 2.8 km
Cloud details: Mostly cloudy 100 ft
2018/12/16 08:56 KMPV 160856Z AUTO 00000KT 1 3/4SM BR BKN001 M07/M07 A3024 RMK AO2 T10721072
KASH - Nashua/Boire Fld, New Hampshire, USA
Distance from station: SE 59mi, 95km
Updated: 3:56am
Clear
Clear
 Wind from N
Wind: N 5 mph , 7 km/h
Temperature: 30°F , -1°C
Wind Chill: 25°F , -4°C
Dew Point: 27°F , -3°C
Humidity: 86%
Barometer: 30.22 inHg , 1023.4 hPa
Clouds: Clear
Visibility: 10 miles , 16 km
2018/12/16 08:56 KASH 160856Z AUTO 36004KT 10SM CLR M01/M03 A3022 RMK AO2 SLP246 T10111033 58005 FZRANO $
KAQW - North Adams, Massachusetts, USA
Distance from station: SW 62mi, 99km
Updated: 3:52am
Clear
Clear
 Wind from ESE
Wind: ESE 13 mph , 20 km/h, Gust: 17 mph , 28 km/h
Temperature: 36°F , 2°C
Wind Chill: 27°F , -3°C
Dew Point: 25°F , -4°C
Humidity: 65%
Barometer: 30.16 inHg , 1021.3 hPa
Clouds: Clear
Visibility: 10 miles , 16 km
2018/12/16 08:52 KAQW 160852Z AUTO 11011G15KT 10SM CLR 02/M04 A3016 RMK AO2 SLP219 T00221039 55010
 
KGFL - Glens Falls, New York, USA
Distance from station: W 63mi, 101km
Updated: 3:53am
Clear
Clear
 Wind from ENE
Wind: ENE 3 mph , 6 km/h
Temperature: 27°F , -3°C
Dew Point: 25°F , -4°C
Humidity: 93%
Barometer: 30.20 inHg , 1022.7 hPa
Clouds: Clear
Visibility: 10 miles , 16 km
2018/12/16 08:53 KGFL 160853Z AUTO 07003KT 10SM CLR M03/M04 A3020 RMK AO2 SLP233 T10281044 58009
KFIT - Fitchburg, Massachusetts, USA
Distance from station: SSE 65mi, 105km
Updated: 3:52am
Clear
Clear
 Wind from N
Wind: N 8 mph , 13 km/h
Temperature: 32°F , 0°C
Wind Chill: 25°F , -4°C
Dew Point: 25°F , -4°C
Humidity: 75%
Barometer: 30.20 inHg , 1022.7 hPa
Clouds: Clear
Visibility: 10 miles , 16 km
2018/12/16 08:52 KFIT 160852Z AUTO 36007KT 10SM CLR 00/M04 A3020 RMK AO2 SLP231 T00001044 58006
KDAW - Rochester, New Hampshire, USA
Distance from station: E 73mi, 118km
Updated: 3:51am
Clear
Clear
 Wind from calm
Wind: Calm
Temperature: 32°F , 0°C
Dew Point: 25°F , -4°C
Humidity: 75%
Barometer: 30.22 inHg , 1023.4 hPa
Clouds: Clear
Visibility: 10 miles , 16 km
2018/12/16 08:51 KDAW 160851Z AUTO 00000KT 10SM CLR 00/M04 A3022 RMK AO2 SLP234 T00001039 58006
 
K1V4 - St. Johnsbury, Vermont, USA
Distance from station: NNE 74mi, 119km
Updated: 3:54am

 
Temperature: 21°F , -6°C
Dew Point: 19°F , -7°C
Humidity: 93%
Barometer: 30.23 inHg , 1023.7 hPa
2018/12/16 08:54 K1V4 160854Z AUTO M06/M07 A3023 RMK AO1 SLP249 T10611067 55002
KLWM - Lawrence, Massachusetts, USA
Distance from station: SE 77mi, 124km
Updated: 3:54am
Few Clouds
Few Clouds
 Wind from N
Wind: N 8 mph , 13 km/h
Temperature: 36°F , 2°C
Wind Chill: 30°F , -1°C
Dew Point: 27°F , -3°C
Humidity: 70%
Barometer: 30.22 inHg , 1023.4 hPa
Clouds: Few Clouds
Visibility: 10 miles , 16 km
Cloud details: Few Clouds 2500 ft
2018/12/16 08:54 KLWM 160854Z AUTO 01007KT 10SM FEW025 02/M03 A3022 RMK AO2 SLP234 T00171033 58004



Flag Counter
free counter page views since 4/29/2009